Time;durP1;ratioP1;P1;durP2;ratioP2;P2;SDS_P1;SDS_P2;PMS_P1;PMS_P2;Temp;Humidity;BMP_temperature;BMP_pressure;BME280_temperature;BME280_humidity;BME280_pressure;Samples;Min_cycle;Max_cycle;Signal;HPM_P1;HPM_P2
2022/12/15 00:39:39;;;;;;;3.25;2.30;;;10.70;99.90;;;;;;5070517;28;20058;-87
2022/12/15 00:42:05;;;;;;;2.30;2.10;;;10.70;99.90;;;;;;5073146;28;20020;-87
2022/12/15 00:44:31;;;;;;;2.55;1.92;;;10.70;99.90;;;;;;5078564;28;20027;-87
2022/12/15 00:46:57;;;;;;;3.10;2.17;;;10.80;99.90;;;;;;5070136;28;20491;-86
2022/12/15 01:22:23;;;;;;;3.85;1.90;;;11.10;99.90;;;;;;5087220;28;20131;-86
2022/12/15 01:24:49;;;;;;;4.43;2.28;;;11.10;99.90;;;;;;5073728;28;20091;-86
2022/12/15 01:27:15;;;;;;;2.33;2.08;;;11.10;99.90;;;;;;5073508;28;20134;-86
2022/12/15 01:29:41;;;;;;;2.53;2.33;;;11.10;99.90;;;;;;5072543;28;20031;-87
2022/12/15 01:32:07;;;;;;;2.65;2.10;;;11.10;99.90;;;;;;5073604;28;20020;-86
2022/12/15 01:34:33;;;;;;;2.33;2.08;;;11.10;99.90;;;;;;5073270;28;20501;-87
2022/12/15 01:36:59;;;;;;;2.80;2.05;;;11.10;99.90;;;;;;5072305;28;20029;-86
2022/12/15 01:40:43;;;;;;;2.83;2.45;;;11.10;99.90;;;;;;5072163;28;20021;-86
2022/12/15 01:42:12;;;;;;;2.88;2.22;;;11.10;99.90;;;;;;5076781;28;20027;-86
2022/12/15 01:44:38;;;;;;;3.45;2.45;;;11.10;99.90;;;;;;5081179;28;20029;-86
2022/12/15 01:47:04;;;;;;;4.70;2.47;;;11.10;99.90;;;;;;5072008;28;20202;-86
2022/12/15 01:49:31;;;;;;;4.63;2.85;;;11.10;99.90;;;;;;5073086;28;20050;-86
2022/12/15 01:52:03;;;;;;;3.60;2.38;;;11.10;99.90;;;;;;5060045;28;20027;-86
2022/12/15 01:54:42;;;;;;;2.60;2.33;;;11.10;99.90;;;;;;5075347;28;20078;-87
2022/12/15 01:57:17;;;;;;;4.05;2.15;;;11.10;99.90;;;;;;5073259;28;20031;-87
2022/12/15 01:59:49;;;;;;;4.93;2.67;;;11.20;99.90;;;;;;5072916;28;20051;-86
2022/12/15 02:02:16;;;;;;;6.88;2.90;;;11.10;99.90;;;;;;5072977;28;20024;-87
2022/12/15 02:04:44;;;;;;;3.72;2.60;;;11.10;99.90;;;;;;5073760;28;20054;-87
2022/12/15 02:07:16;;;;;;;4.32;2.65;;;11.10;99.90;;;;;;5072992;28;20021;-87
2022/12/15 02:09:44;;;;;;;3.10;2.80;;;11.10;99.90;;;;;;5072827;28;20095;-87
2022/12/15 02:12:36;;;;;;;4.05;2.40;;;11.20;99.90;;;;;;5072544;28;20108;-87
2022/12/15 02:15:26;;;;;;;4.03;3.10;;;11.20;99.90;;;;;;5062722;28;20025;-87
2022/12/15 02:18:28;;;;;;;4.55;3.25;;;11.20;99.90;;;;;;5059150;28;20028;-86
2022/12/15 02:21:15;;;;;;;6.57;3.38;;;11.30;99.90;;;;;;5072493;28;20036;-86
2022/12/15 02:23:56;;;;;;;4.80;3.10;;;11.20;99.90;;;;;;5072640;28;20024;-86
2022/12/15 02:26:39;;;;;;;4.28;3.08;;;11.20;99.90;;;;;;5072421;28;20053;-86
2022/12/15 02:29:19;;;;;;;3.33;2.95;;;11.10;99.90;;;;;;5072517;28;20048;-86
2022/12/15 02:31:59;;;;;;;5.35;3.83;;;11.10;99.90;;;;;;5087197;28;20032;-86
2022/12/15 02:34:42;;;;;;;4.95;3.13;;;11.20;99.90;;;;;;5082867;28;20042;-87
2022/12/15 02:37:19;;;;;;;3.63;2.85;;;11.10;99.90;;;;;;5074575;28;20063;-87
2022/12/15 02:39:45;;;;;;;4.28;3.03;;;11.10;99.90;;;;;;5072245;28;20131;-88
2022/12/15 02:42:11;;;;;;;4.97;3.05;;;11.10;99.90;;;;;;5074705;28;20099;-87
2022/12/15 02:44:42;;;;;;;4.18;3.17;;;11.10;99.90;;;;;;5078355;28;20052;-87
2022/12/15 02:47:32;;;;;;;3.33;2.67;;;11.10;99.90;;;;;;5072068;28;20028;-88
2022/12/15 02:50:29;;;;;;;3.58;3.10;;;11.10;99.90;;;;;;5070702;28;20036;-87
2022/12/15 02:53:06;;;;;;;4.95;3.58;;;11.10;99.90;;;;;;5070865;28;20115;-86
2022/12/15 02:55:47;;;;;;;5.43;3.40;;;11.10;99.90;;;;;;5072183;28;20025;-87
2022/12/15 02:58:30;;;;;;;5.97;3.40;;;11.10;99.90;;;;;;5072090;28;20520;-86
2022/12/15 03:01:04;;;;;;;3.88;3.28;;;11.10;99.90;;;;;;5071875;28;20025;-86
2022/12/15 03:03:33;;;;;;;4.07;3.40;;;11.10;99.90;;;;;;5072098;28;20020;-86
2022/12/15 03:06:01;;;;;;;4.47;3.20;;;11.10;99.90;;;;;;5083837;28;20063;-86
2022/12/15 03:08:27;;;;;;;3.47;3.17;;;11.10;99.90;;;;;;5071994;28;20078;-86
2022/12/15 03:10:54;;;;;;;4.05;3.28;;;11.10;99.90;;;;;;5070142;28;20032;-86
2022/12/15 03:13:20;;;;;;;4.15;3.17;;;11.10;99.90;;;;;;5071213;28;20032;-87
2022/12/15 03:15:46;;;;;;;3.83;3.25;;;11.10;99.90;;;;;;5071269;28;20025;-86
2022/12/15 03:18:11;;;;;;;3.50;3.10;;;11.10;99.90;;;;;;5070327;28;20081;-86
2022/12/15 03:20:37;;;;;;;3.20;2.92;;;11.00;99.90;;;;;;5069930;28;20446;-86
2022/12/15 03:23:03;;;;;;;4.53;2.60;;;11.00;99.90;;;;;;5071636;28;20478;-86
2022/12/15 03:25:29;;;;;;;5.32;3.72;;;11.00;99.90;;;;;;5084873;28;20048;-86
2022/12/15 03:27:55;;;;;;;5.65;3.88;;;11.00;99.90;;;;;;5071285;28;20028;-85
2022/12/15 03:30:21;;;;;;;6.82;4.20;;;11.10;99.90;;;;;;5085796;28;20521;-86
2022/12/15 03:32:47;;;;;;;5.75;3.90;;;11.10;99.90;;;;;;5091315;28;20024;-86
2022/12/15 03:35:13;;;;;;;6.93;5.93;;;11.20;99.90;;;;;;5090865;28;20482;-86
2022/12/15 03:37:39;;;;;;;6.88;5.80;;;11.20;99.90;;;;;;5091046;28;20028;-86
2022/12/15 03:40:06;;;;;;;7.47;5.78;;;11.30;99.90;;;;;;5090562;28;20032;-87
2022/12/15 03:42:47;;;;;;;11.35;6.43;;;11.20;99.90;;;;;;5084144;28;20066;-86
2022/12/15 03:45:17;;;;;;;8.35;6.45;;;11.30;99.90;;;;;;5088034;28;20478;-86
2022/12/15 03:47:44;;;;;;;9.45;6.07;;;11.20;99.90;;;;;;5089927;28;20051;-86
2022/12/15 03:50:11;;;;;;;7.40;6.45;;;11.20;99.90;;;;;;5070966;28;20025;-87
2022/12/15 03:52:37;;;;;;;7.85;6.63;;;11.30;99.90;;;;;;5070814;28;20031;-86
2022/12/15 03:55:03;;;;;;;6.22;5.43;;;11.30;99.90;;;;;;5085705;28;20036;-86
2022/12/15 03:57:30;;;;;;;7.22;6.10;;;11.20;99.90;;;;;;5070657;28;20021;-86
2022/12/15 03:59:56;;;;;;;6.82;5.90;;;11.20;99.90;;;;;;5070730;28;20485;-87
2022/12/15 04:02:21;;;;;;;6.78;5.88;;;11.20;99.90;;;;;;5070957;28;20021;-86
2022/12/15 04:04:47;;;;;;;7.85;7.05;;;11.30;99.90;;;;;;5070598;28;20024;-86
2022/12/15 04:07:13;;;;;;;7.45;6.63;;;11.30;99.90;;;;;;5070472;28;20086;-87
2022/12/15 04:09:39;;;;;;;8.82;6.88;;;11.30;99.90;;;;;;5075653;28;20024;-87
2022/12/15 04:12:05;;;;;;;7.10;5.70;;;11.30;99.90;;;;;;5078527;28;20024;-88
2022/12/15 04:14:31;;;;;;;8.00;6.05;;;11.30;99.90;;;;;;5070731;28;20028;-89
2022/12/15 04:16:57;;;;;;;8.50;6.18;;;11.30;99.90;;;;;;5070541;28;20027;-87
2022/12/15 04:22:07;;;;;;;7.20;5.93;;;11.30;99.90;;;;;;5070391;28;20082;-87
2022/12/15 05:33:04;;;;;;;3.53;2.75;;;11.50;99.90;;;;;;5072862;28;20102;-86
2022/12/15 05:35:30;;;;;;;4.13;2.90;;;11.50;99.90;;;;;;5073151;28;20075;-87
2022/12/15 05:37:55;;;;;;;3.78;3.00;;;11.50;99.90;;;;;;5073144;28;20505;-86
2022/12/15 05:40:21;;;;;;;3.22;2.65;;;11.50;99.90;;;;;;5072775;28;20028;-87
2022/12/15 05:42:47;;;;;;;3.00;2.70;;;11.50;99.90;;;;;;5073041;28;20017;-86
2022/12/15 05:45:12;;;;;;;2.88;2.42;;;11.50;99.90;;;;;;5072896;28;20070;-86
2022/12/15 05:47:38;;;;;;;2.78;2.40;;;11.50;99.90;;;;;;5073324;28;20031;-86
2022/12/15 05:50:04;;;;;;;3.22;2.70;;;11.50;99.90;;;;;;5073489;28;20043;-86
2022/12/15 05:52:30;;;;;;;3.60;2.42;;;11.50;99.90;;;;;;5072552;28;20032;-86
2022/12/15 05:54:55;;;;;;;3.05;2.40;;;11.50;99.90;;;;;;5072715;28;20028;-86
2022/12/15 05:57:21;;;;;;;2.55;2.15;;;11.40;99.90;;;;;;5073029;28;20095;-86
2022/12/15 05:59:47;;;;;;;2.67;2.28;;;11.40;99.90;;;;;;5073162;28;20134;-86
2022/12/15 06:02:13;;;;;;;2.78;2.33;;;11.40;99.90;;;;;;5073108;28;20033;-86
2022/12/15 06:04:38;;;;;;;3.78;2.60;;;11.40;99.90;;;;;;5072884;28;20025;-86
2022/12/15 06:07:04;;;;;;;2.45;2.00;;;11.40;99.90;;;;;;5072431;28;20060;-86
2022/12/15 06:09:30;;;;;;;3.08;2.47;;;11.40;99.90;;;;;;5072719;28;20021;-86
2022/12/15 06:11:55;;;;;;;2.75;1.88;;;11.40;99.90;;;;;;5083496;28;20024;-86
2022/12/15 06:14:21;;;;;;;2.92;2.20;;;11.40;99.90;;;;;;5092731;28;20543;-86
2022/12/15 06:16:46;;;;;;;3.60;2.40;;;11.40;99.90;;;;;;5092790;28;20039;-86
2022/12/15 06:19:12;;;;;;;4.00;2.53;;;11.40;99.90;;;;;;5092710;28;20024;-86
2022/12/15 06:21:38;;;;;;;2.83;2.28;;;11.40;99.90;;;;;;5092259;28;20516;-86
2022/12/15 06:24:05;;;;;;;2.50;2.22;;;11.40;99.90;;;;;;5092218;28;20028;-85
2022/12/15 06:26:36;;;;;;;2.33;2.15;;;11.30;99.90;;;;;;5092362;28;20089;-85
2022/12/15 06:29:04;;;;;;;3.00;2.37;;;11.30;99.90;;;;;;5092780;28;20016;-85
2022/12/15 06:31:31;;;;;;;3.83;2.40;;;11.30;99.90;;;;;;5092406;28;20020;-86
2022/12/15 06:33:58;;;;;;;3.75;2.60;;;11.30;99.90;;;;;;5092635;28;20032;-85
2022/12/15 06:36:24;;;;;;;2.83;2.63;;;11.30;99.90;;;;;;5092478;28;20024;-85
2022/12/15 06:38:50;;;;;;;3.80;2.60;;;11.20;99.90;;;;;;5092208;28;20497;-85
2022/12/15 06:41:18;;;;;;;2.47;2.28;;;11.20;99.90;;;;;;5090356;28;20047;-84
2022/12/15 06:43:51;;;;;;;3.33;2.63;;;11.20;99.90;;;;;;5075289;28;20017;-84
2022/12/15 06:46:17;;;;;;;2.85;2.60;;;11.20;99.90;;;;;;5072014;28;20120;-84
2022/12/15 06:48:45;;;;;;;2.80;2.58;;;11.20;99.90;;;;;;5070715;28;20100;-85
2022/12/15 06:51:12;;;;;;;3.35;2.80;;;11.20;99.90;;;;;;5070835;28;20090;-84
2022/12/15 06:53:49;;;;;;;2.90;2.70;;;11.20;99.90;;;;;;5071701;28;20106;-84
2022/12/15 06:56:21;;;;;;;3.88;3.13;;;11.20;99.90;;;;;;5071703;28;20111;-84
2022/12/15 06:58:48;;;;;;;3.10;2.85;;;11.20;99.90;;;;;;5071913;28;20035;-84
2022/12/15 07:01:14;;;;;;;3.10;2.80;;;11.20;99.90;;;;;;5072043;28;20055;-84
2022/12/15 07:03:40;;;;;;;3.38;3.10;;;11.20;99.90;;;;;;5071527;28;20103;-84
2022/12/15 07:06:09;;;;;;;3.20;2.92;;;11.20;99.90;;;;;;5071678;28;20021;-84
2022/12/15 07:08:34;;;;;;;3.33;3.03;;;11.20;99.90;;;;;;5071244;28;20544;-84
2022/12/15 07:11:05;;;;;;;3.70;3.10;;;11.20;99.90;;;;;;5088827;28;20024;-84
2022/12/15 07:13:31;;;;;;;3.30;3.00;;;11.20;99.90;;;;;;5080253;28;20024;-85
2022/12/15 07:16:01;;;;;;;3.63;3.33;;;11.20;99.90;;;;;;5070187;28;20086;-85
2022/12/15 07:18:28;;;;;;;3.42;3.13;;;11.10;99.90;;;;;;5071167;28;20021;-85
2022/12/15 07:20:54;;;;;;;3.10;2.80;;;11.10;99.90;;;;;;5086692;28;20504;-85
2022/12/15 07:23:20;;;;;;;3.22;2.90;;;11.10;99.90;;;;;;5070820;28;20096;-84
2022/12/15 07:25:46;;;;;;;3.50;2.97;;;11.20;99.90;;;;;;5071251;28;20119;-85
2022/12/15 07:28:11;;;;;;;3.55;3.22;;;11.10;99.90;;;;;;5071164;28;20029;-86
2022/12/15 07:30:37;;;;;;;4.35;3.40;;;11.00;99.90;;;;;;5071096;28;20128;-86
2022/12/15 07:33:03;;;;;;;3.50;3.08;;;10.90;99.90;;;;;;5071482;28;20028;-86
2022/12/15 07:35:29;;;;;;;3.38;3.08;;;10.90;99.90;;;;;;5071265;28;20031;-85
2022/12/15 07:37:55;;;;;;;4.10;3.35;;;10.80;99.90;;;;;;5070827;28;20020;-83
2022/12/15 07:40:21;;;;;;;4.20;3.80;;;10.80;99.90;;;;;;5071077;28;20043;-84
2022/12/15 07:42:47;;;;;;;7.57;4.18;;;10.70;99.90;;;;;;5070893;28;20017;-84
2022/12/15 07:45:13;;;;;;;4.97;3.60;;;10.70;99.90;;;;;;5070961;28;20055;-83
2022/12/15 07:47:39;;;;;;;3.83;3.33;;;10.70;99.90;;;;;;5071065;28;20093;-84
2022/12/15 07:50:05;;;;;;;3.45;3.15;;;10.70;99.90;;;;;;5071028;28;20560;-84
2022/12/15 07:52:31;;;;;;;4.80;3.55;;;10.70;99.90;;;;;;5071023;28;20059;-84
2022/12/15 07:54:57;;;;;;;4.35;3.92;;;10.70;99.90;;;;;;5070867;28;20063;-83
2022/12/15 07:57:22;;;;;;;5.03;4.15;;;10.70;99.90;;;;;;5070442;28;20028;-83
2022/12/15 07:59:49;;;;;;;4.22;3.45;;;10.60;99.90;;;;;;5071047;28;20032;-84
2022/12/15 08:02:15;;;;;;;4.90;3.58;;;10.60;99.90;;;;;;5081891;28;20017;-84
2022/12/15 08:04:41;;;;;;;4.03;3.22;;;10.60;99.90;;;;;;5090510;28;20494;-84
2022/12/15 08:07:08;;;;;;;4.13;3.35;;;10.60;99.90;;;;;;5090999;28;20117;-86
2022/12/15 08:09:34;;;;;;;4.30;3.88;;;10.50;99.90;;;;;;5090742;28;20024;-85
2022/12/15 08:12:00;;;;;;;4.55;3.45;;;10.40;99.90;;;;;;5090447;28;20027;-85
2022/12/15 08:14:27;;;;;;;4.50;3.50;;;10.50;99.90;;;;;;5090197;28;20102;-86
2022/12/15 08:16:53;;;;;;;5.30;3.95;;;10.50;99.90;;;;;;5090448;28;20035;-85
2022/12/15 08:19:19;;;;;;;4.13;3.50;;;10.30;99.90;;;;;;5090478;28;20091;-87
2022/12/15 08:21:45;;;;;;;4.88;3.60;;;10.40;99.90;;;;;;5090781;28;20077;-86
2022/12/15 08:24:13;;;;;;;5.60;3.95;;;10.30;99.90;;;;;;5081662;28;20051;-86
2022/12/15 08:26:40;;;;;;;4.70;4.10;;;10.20;99.90;;;;;;5068529;28;20071;-85
2022/12/15 08:29:09;;;;;;;4.88;4.00;;;10.20;99.90;;;;;;5070191;28;20017;-84
2022/12/15 08:31:35;;;;;;;4.90;3.90;;;10.20;99.90;;;;;;5069977;28;20036;-84
2022/12/15 08:34:01;;;;;;;5.68;3.55;;;10.10;99.90;;;;;;5058692;28;20048;-84
2022/12/15 08:36:27;;;;;;;4.43;3.17;;;10.20;99.90;;;;;;5069464;28;20559;-84
2022/12/15 08:38:56;;;;;;;4.60;4.03;;;10.30;99.90;;;;;;5059991;28;20029;-83
2022/12/15 08:41:29;;;;;;;4.50;3.28;;;10.30;99.90;;;;;;5069468;28;20020;-84
2022/12/15 08:43:56;;;;;;;5.70;3.50;;;10.20;99.90;;;;;;5068385;28;20032;-84
2022/12/15 08:46:25;;;;;;;4.65;3.42;;;10.30;99.90;;;;;;5067718;28;20016;-84
2022/12/15 08:48:51;;;;;;;4.75;2.60;;;10.20;99.90;;;;;;5069792;28;20024;-84
2022/12/15 08:51:17;;;;;;;3.33;3.03;;;10.30;99.90;;;;;;5071199;28;20044;-84
2022/12/15 08:53:43;;;;;;;3.13;2.80;;;10.30;99.90;;;;;;5077945;28;20063;-84
2022/12/15 08:56:12;;;;;;;3.17;2.53;;;10.30;99.90;;;;;;5071108;28;20029;-83
2022/12/15 08:58:39;;;;;;;3.35;3.00;;;10.40;99.90;;;;;;5068454;28;20029;-83
2022/12/15 09:01:16;;;;;;;3.70;3.20;;;10.40;99.90;;;;;;5067932;28;20525;-84
2022/12/15 09:03:42;;;;;;;4.88;3.47;;;10.30;99.90;;;;;;5071084;28;20050;-83
2022/12/15 09:06:14;;;;;;;5.15;3.28;;;10.30;99.90;;;;;;5068783;28;20086;-83
2022/12/15 09:08:40;;;;;;;3.58;2.92;;;10.30;99.90;;;;;;5068431;28;20481;-84
2022/12/15 09:11:06;;;;;;;4.15;2.92;;;10.30;99.90;;;;;;5069643;28;20073;-85
2022/12/15 09:13:32;;;;;;;3.35;2.78;;;10.30;99.90;;;;;;5069952;28;20040;-85
2022/12/15 09:16:06;;;;;;;5.45;3.38;;;10.40;99.90;;;;;;5072725;28;20054;-84
2022/12/15 09:18:33;;;;;;;5.13;3.30;;;10.30;99.90;;;;;;5073243;28;20082;-85
2022/12/15 09:21:04;;;;;;;3.53;2.90;;;10.40;99.90;;;;;;5073631;28;20025;-84
2022/12/15 09:23:30;;;;;;;2.72;2.53;;;10.40;99.90;;;;;;5073322;28;20043;-85
2022/12/15 09:26:00;;;;;;;3.28;2.80;;;10.50;99.90;;;;;;5074952;28;20123;-85
2022/12/15 09:28:28;;;;;;;3.10;2.80;;;10.60;99.90;;;;;;5073692;28;20027;-86
2022/12/15 09:30:53;;;;;;;4.32;3.08;;;10.60;99.90;;;;;;5073613;28;20063;-85
2022/12/15 09:33:20;;;;;;;3.17;2.70;;;10.70;99.90;;;;;;5086144;28;20055;-85
2022/12/15 09:35:50;;;;;;;2.65;2.45;;;10.70;99.90;;;;;;5066750;28;20029;-85
2022/12/15 09:38:16;;;;;;;3.40;2.75;;;10.80;99.90;;;;;;5072428;28;20035;-85
2022/12/15 09:40:41;;;;;;;3.22;2.20;;;10.80;99.90;;;;;;5072437;28;20692;-86
2022/12/15 09:43:21;;;;;;;3.22;2.60;;;10.90;99.90;;;;;;5072269;28;20024;-86
2022/12/15 09:45:53;;;;;;;3.17;2.40;;;10.90;99.90;;;;;;5078969;28;20118;-86
2022/12/15 09:48:21;;;;;;;3.72;2.80;;;10.90;99.90;;;;;;5076183;28;20024;-86
2022/12/15 09:50:52;;;;;;;4.55;2.50;;;11.00;99.90;;;;;;5072750;28;20028;-86
2022/12/15 09:53:20;;;;;;;2.87;2.40;;;11.00;99.90;;;;;;5077722;28;20035;-85
2022/12/15 09:55:51;;;;;;;2.85;2.20;;;11.00;99.90;;;;;;5075806;28;20051;-87
2022/12/15 09:58:51;;;;;;;2.85;2.60;;;11.00;99.90;;;;;;5072523;28;20074;-86
2022/12/15 10:01:22;;;;;;;3.78;2.97;;;10.90;99.90;;;;;;5072943;28;20050;-86
2022/12/15 10:03:51;;;;;;;;;;;10.90;99.90;;;;;;5072366;28;20230;-85
2022/12/15 10:06:22;;;;;;;5.07;3.42;;;10.90;99.90;;;;;;5072719;28;20007;-85
2022/12/15 10:09:01;;;;;;;4.70;3.72;;;10.80;99.90;;;;;;5072399;28;20058;-86
2022/12/15 10:11:53;;;;;;;4.75;3.65;;;10.70;99.90;;;;;;5070820;28;20107;-85
2022/12/15 10:14:37;;;;;;;5.95;4.43;;;10.80;99.90;;;;;;5072491;28;20025;-85
2022/12/15 10:17:23;;;;;;;6.20;4.10;;;10.70;99.90;;;;;;5071937;28;20407;-86
2022/12/15 10:20:13;;;;;;;5.68;4.00;;;10.80;99.90;;;;;;5061656;28;20035;-86
2022/12/15 10:22:39;;;;;;;4.47;3.85;;;10.80;99.90;;;;;;5072159;28;20025;-86
2022/12/15 10:25:28;;;;;;;5.65;4.13;;;10.80;99.90;;;;;;5076372;28;20036;-87
2022/12/15 10:28:16;;;;;;;7.43;4.97;;;10.80;99.90;;;;;;5071269;28;20041;-86
2022/12/15 10:30:57;;;;;;;7.72;4.45;;;10.70;99.90;;;;;;5079641;28;20033;-86
2022/12/15 10:33:25;;;;;;;7.57;4.23;;;10.80;99.90;;;;;;5072804;28;20104;-85
2022/12/15 10:35:53;;;;;;;5.28;4.53;;;10.70;99.90;;;;;;5074973;28;20086;-86
2022/12/15 10:38:28;;;;;;;6.63;4.60;;;10.80;99.90;;;;;;5073635;28;20029;-86
2022/12/15 10:40:58;;;;;;;7.70;5.22;;;10.70;99.90;;;;;;5073187;28;20111;-85
2022/12/15 10:43:35;;;;;;;4.78;4.05;;;10.80;99.90;;;;;;5076605;28;20023;-85
2022/12/15 10:46:13;;;;;;;5.88;4.65;;;10.90;99.90;;;;;;5083717;28;20028;-84
2022/12/15 10:48:40;;;;;;;14.43;9.43;;;10.90;99.90;;;;;;5060931;28;20077;-85
2022/12/15 10:51:17;;;;;;;14.75;10.18;;;10.90;99.90;;;;;;5071383;28;20362;-85
2022/12/15 10:53:42;;;;;;;13.35;9.07;;;10.90;99.90;;;;;;5059749;28;20031;-85
2022/12/15 10:56:18;;;;;;;11.45;8.15;;;10.90;99.90;;;;;;5072218;28;20036;-85
2022/12/15 10:58:46;;;;;;;9.60;7.35;;;11.00;99.90;;;;;;5072484;28;20036;-85
2022/12/15 11:01:23;;;;;;;9.10;6.65;;;11.00;99.90;;;;;;5070232;28;20554;-85
2022/12/15 11:03:53;;;;;;;8.10;6.55;;;11.10;99.90;;;;;;5071925;28;20031;-85
2022/12/15 11:06:20;;;;;;;7.93;6.05;;;11.10;99.90;;;;;;5075548;28;20070;-85
2022/12/15 11:08:48;;;;;;;7.13;5.88;;;11.10;99.90;;;;;;5073536;28;20013;-85
2022/12/15 11:14:17;;;;;;;6.95;5.65;;;11.20;99.90;;;;;;5071314;28;20124;-85
2022/12/15 11:16:55;;;;;;;5.13;4.35;;;11.20;99.90;;;;;;5076970;28;20050;-85
2022/12/15 11:19:39;;;;;;;6.00;5.40;;;11.20;99.90;;;;;;5071256;28;20415;-85
2022/12/15 11:22:29;;;;;;;5.63;4.93;;;11.20;99.90;;;;;;5079693;28;20063;-85
2022/12/15 11:25:29;;;;;;;5.55;4.43;;;11.20;99.90;;;;;;5069489;28;20032;-86
2022/12/15 11:27:56;;;;;;;6.22;4.47;;;11.20;99.90;;;;;;5078795;28;20036;-85
2022/12/15 11:30:32;;;;;;;5.50;4.57;;;11.30;99.90;;;;;;5087302;28;20035;-85
2022/12/15 11:33:00;;;;;;;5.22;4.72;;;11.20;99.90;;;;;;5068953;28;20029;-85
2022/12/15 11:36:11;;;;;;;5.88;5.05;;;11.40;99.90;;;;;;5070573;28;20103;-85
2022/12/15 11:38:50;;;;;;;6.30;4.53;;;11.40;99.90;;;;;;5008923;28;20076;-86
2022/12/15 11:41:33;;;;;;;5.78;4.90;;;11.40;99.90;;;;;;5017417;28;20037;-86
2022/12/15 11:44:33;;;;;;;6.15;4.78;;;11.50;99.90;;;;;;5008423;28;20049;-85
2022/12/15 11:47:17;;;;;;;5.50;4.95;;;11.60;99.90;;;;;;5005026;28;20038;-86
2022/12/15 11:49:51;;;;;;;7.15;5.15;;;11.50;99.90;;;;;;4996460;28;20038;-86
2022/12/15 11:52:36;;;;;;;7.07;4.80;;;11.60;99.90;;;;;;5008597;28;20032;-85
2022/12/15 11:55:15;;;;;;;5.95;5.22;;;11.60;99.90;;;;;;4989732;28;20608;-85
2022/12/15 11:57:49;;;;;;;6.32;4.75;;;11.70;99.90;;;;;;4989054;28;20026;-86
2022/12/15 12:00:20;;;;;;;7.63;5.65;;;11.60;99.90;;;;;;4990750;28;20054;-85
2022/12/15 12:03:13;;;;;;;6.60;5.38;;;11.70;99.90;;;;;;4998483;28;20077;-85
2022/12/15 12:05:44;;;;;;;6.05;5.07;;;11.70;99.90;;;;;;4992357;28;20237;-85
2022/12/15 12:08:29;;;;;;;;;;;11.70;99.90;;;;;;5008603;28;20532;-86
2022/12/15 12:11:01;;;;;;;6.85;5.78;;;11.70;99.90;;;;;;5000052;28;19917;-85
2022/12/15 12:13:45;;;;;;;8.35;6.35;;;11.60;99.90;;;;;;5008266;28;20611;-85
2022/12/15 12:16:23;;;;;;;9.15;6.93;;;11.60;99.90;;;;;;5051451;28;20124;-86
2022/12/15 12:19:08;;;;;;;7.95;6.68;;;11.60;99.90;;;;;;5070529;28;20035;-85
2022/12/15 12:21:45;;;;;;;9.60;7.80;;;11.60;99.90;;;;;;5070248;28;20028;-86
2022/12/15 12:24:44;;;;;;;8.88;6.82;;;11.70;99.90;;;;;;5069568;28;20023;-86
2022/12/15 12:27:27;;;;;;;8.93;7.00;;;11.70;99.90;;;;;;5057907;28;20040;-86
2022/12/15 12:30:25;;;;;;;7.70;6.18;;;11.80;99.90;;;;;;5069710;28;20065;-87
2022/12/15 12:33:02;;;;;;;7.75;6.82;;;11.80;99.90;;;;;;5040071;28;20621;-86
2022/12/15 12:35:44;;;;;;;8.65;7.20;;;11.80;99.90;;;;;;5061431;28;20020;-85
2022/12/15 12:38:11;;;;;;;8.45;7.32;;;11.80;99.90;;;;;;5061389;28;20017;-86
2022/12/15 12:40:59;;;;;;;7.88;6.57;;;11.80;99.90;;;;;;5069135;28;20029;-86
2022/12/15 12:43:38;;;;;;;8.30;6.53;;;11.70;99.90;;;;;;5070459;28;20017;-85
2022/12/15 12:46:28;;;;;;;7.20;5.88;;;11.70;99.90;;;;;;5069159;28;20033;-86
2022/12/15 12:49:11;;;;;;;6.97;5.63;;;11.70;99.90;;;;;;5066911;28;20070;-86
2022/12/15 12:51:40;;;;;;;7.45;5.88;;;11.70;99.90;;;;;;5070952;28;20064;-86
2022/12/15 12:54:36;;;;;;;7.82;5.93;;;11.80;99.90;;;;;;5073121;28;20029;-85
2022/12/15 12:57:11;;;;;;;6.50;5.40;;;11.90;99.90;;;;;;5073951;28;20036;-86
2022/12/15 12:59:40;;;;;;;6.13;5.30;;;12.00;99.90;;;;;;5073870;28;20028;-86
2022/12/15 13:02:23;;;;;;;7.88;5.40;;;12.00;99.90;;;;;;5073726;28;20035;-86
2022/12/15 13:04:50;;;;;;;7.65;5.32;;;12.10;99.90;;;;;;5092155;28;20032;-85
2022/12/15 13:07:37;;;;;;;5.95;4.90;;;12.10;99.90;;;;;;5079313;28;20074;-84
2022/12/15 13:10:11;;;;;;;6.40;5.00;;;12.20;99.90;;;;;;5072837;28;20024;-84
2022/12/15 13:12:59;;;;;;;5.75;5.15;;;12.20;99.90;;;;;;5072351;28;20028;-85
2022/12/15 13:15:47;;;;;;;6.20;4.90;;;12.20;99.90;;;;;;5084770;28;20489;-85
2022/12/15 13:18:21;;;;;;;5.93;4.80;;;12.30;99.90;;;;;;5062117;28;20039;-85
2022/12/15 13:20:54;;;;;;;5.15;4.57;;;12.30;99.90;;;;;;5079497;28;20028;-85
2022/12/15 13:23:26;;;;;;;6.18;4.13;;;12.40;99.90;;;;;;5077436;28;20050;-85
2022/12/15 13:25:52;;;;;;;6.55;4.63;;;12.40;99.90;;;;;;5074394;28;20041;-84
2022/12/15 13:28:37;;;;;;;3.92;3.55;;;12.40;99.90;;;;;;5073146;28;20417;-85
2022/12/15 13:31:15;;;;;;;4.15;3.72;;;12.40;99.90;;;;;;5072248;28;20051;-85
2022/12/15 13:33:49;;;;;;;4.38;3.45;;;12.40;99.90;;;;;;5073256;28;20528;-86
2022/12/15 13:36:40;;;;;;;4.30;3.90;;;12.40;99.90;;;;;;5071443;28;20559;-86
2022/12/15 13:39:12;;;;;;;4.13;3.55;;;12.40;99.90;;;;;;5059713;28;20043;-85
2022/12/15 13:41:47;;;;;;;4.03;3.63;;;12.50;99.90;;;;;;5072714;28;20020;-86
2022/12/15 13:44:28;;;;;;;3.92;3.53;;;12.50;99.90;;;;;;5061948;28;20028;-86
2022/12/15 13:46:55;;;;;;;3.83;3.47;;;12.60;99.90;;;;;;5082039;28;20025;-85
2022/12/15 13:49:41;;;;;;;4.10;3.20;;;12.80;99.90;;;;;;5072606;28;20263;-85
2022/12/15 13:52:22;;;;;;;2.88;2.67;;;12.80;99.90;;;;;;5063221;28;20028;-85
2022/12/15 13:54:53;;;;;;;4.07;3.23;;;12.90;99.90;;;;;;5072603;28;20063;-85
2022/12/15 13:57:21;;;;;;;4.68;4.28;;;13.10;99.90;;;;;;5072496;28;20033;-86
2022/12/15 14:00:06;;;;;;;4.38;3.97;;;13.10;99.90;;;;;;5071863;28;20047;-86
2022/12/15 14:02:36;;;;;;;4.60;4.07;;;13.10;99.90;;;;;;5072147;28;20032;-85
2022/12/15 14:05:20;;;;;;;4.00;3.60;;;13.20;99.90;;;;;;5079589;28;20032;-86
2022/12/15 14:07:52;;;;;;;8.23;5.38;;;13.20;99.90;;;;;;5072385;28;20028;-84
2022/12/15 14:10:24;;;;;;;5.25;4.70;;;13.20;99.90;;;;;;5084385;28;20078;-85
2022/12/15 14:12:51;;;;;;;7.03;5.25;;;13.30;99.90;;;;;;5077001;28;20082;-85
2022/12/15 14:15:22;;;;;;;5.13;4.63;;;13.30;99.90;;;;;;5071923;28;20415;-85
2022/12/15 14:17:53;;;;;;;5.17;4.67;;;13.30;99.90;;;;;;5072061;28;20116;-85
2022/12/15 14:20:27;;;;;;;5.82;5.22;;;13.30;99.90;;;;;;5071575;28;20290;-86
2022/12/15 14:22:53;;;;;;;8.15;7.30;;;13.60;99.90;;;;;;5072103;28;20032;-85
2022/12/15 14:25:28;;;;;;;7.47;6.55;;;13.50;99.90;;;;;;5071796;28;20040;-85
2022/12/15 14:27:54;;;;;;;10.43;6.75;;;13.60;99.90;;;;;;5072043;28;20068;-86
2022/12/15 14:30:27;;;;;;;7.18;6.47;;;13.60;99.90;;;;;;5071941;28;20028;-86
2022/12/15 14:33:14;;;;;;;6.35;5.65;;;13.40;99.90;;;;;;5071927;28;20036;-85
2022/12/15 14:35:42;;;;;;;4.97;4.47;;;13.30;99.90;;;;;;5071679;28;20064;-85
2022/12/15 14:38:18;;;;;;;4.88;4.18;;;13.30;99.90;;;;;;5072039;28;20042;-85
2022/12/15 14:40:46;;;;;;;5.28;4.78;;;13.40;99.90;;;;;;5071800;28;20082;-85
2022/12/15 14:43:38;;;;;;;5.10;4.70;;;13.40;99.90;;;;;;5071654;28;20107;-85
2022/12/15 14:46:15;;;;;;;5.10;4.60;;;13.30;99.90;;;;;;5068393;28;20040;-84
2022/12/15 14:48:59;;;;;;;4.63;4.22;;;13.20;99.90;;;;;;5072938;28;20107;-85
2022/12/15 14:51:28;;;;;;;4.00;3.60;;;13.10;99.90;;;;;;5071480;28;20082;-84
2022/12/15 14:53:54;;;;;;;4.10;3.47;;;13.10;99.90;;;;;;5071328;28;20034;-85
2022/12/15 14:56:20;;;;;;;4.45;3.50;;;13.10;99.90;;;;;;5071021;28;20016;-84
2022/12/15 14:59:02;;;;;;;3.53;3.22;;;13.10;99.90;;;;;;5071691;28;20024;-84
2022/12/15 15:01:52;;;;;;;4.07;3.67;;;13.00;99.90;;;;;;5070350;28;20107;-85
2022/12/15 15:04:27;;;;;;;4.20;3.22;;;13.00;99.90;;;;;;5070660;28;20108;-85
2022/12/15 15:06:59;;;;;;;4.90;4.07;;;12.90;99.90;;;;;;5071094;28;20032;-85
2022/12/15 15:09:44;;;;;;;3.97;3.50;;;12.80;99.90;;;;;;5075453;28;20510;-85
2022/12/15 15:12:16;;;;;;;4.13;3.70;;;12.70;99.90;;;;;;5084044;28;20579;-84
2022/12/15 15:14:53;;;;;;;4.10;3.70;;;12.70;99.90;;;;;;5061218;28;20038;-84
2022/12/15 15:17:28;;;;;;;3.42;3.05;;;12.70;99.90;;;;;;5070863;28;20040;-85
2022/12/15 15:19:57;;;;;;;3.45;3.05;;;12.60;99.90;;;;;;5060930;28;20052;-84
2022/12/15 15:23:17;;;;;;;3.83;2.55;;;12.60;99.90;;;;;;5071094;28;20032;-84
2022/12/15 15:25:54;;;;;;;3.10;2.80;;;12.60;99.90;;;;;;5072577;28;20554;-85
2022/12/15 15:28:21;;;;;;;3.53;2.90;;;12.60;99.90;;;;;;5066479;28;20056;-84
2022/12/15 15:30:58;;;;;;;3.60;2.90;;;12.60;99.90;;;;;;5061634;28;20033;-84
2022/12/15 15:33:25;;;;;;;5.78;3.38;;;12.60;99.90;;;;;;5066538;28;20033;-84
2022/12/15 15:35:59;;;;;;;4.40;3.55;;;12.60;99.90;;;;;;5070427;28;20039;-84
2022/12/15 15:38:31;;;;;;;3.50;3.20;;;12.60;99.90;;;;;;5067864;28;20035;-83
2022/12/15 15:41:00;;;;;;;4.13;3.35;;;12.50;99.90;;;;;;5078816;28;20036;-82